createdAt,value
2022-11-14T00:04:30.681Z,97387.28
2022-11-14T00:09:51.567Z,97378.78
2022-11-14T00:15:13.220Z,97359.09
2022-11-14T00:20:34.177Z,97371.19
2022-11-14T00:25:54.657Z,97382.38
2022-11-14T00:31:15.605Z,97390.34
2022-11-14T00:36:37.024Z,97375.75
2022-11-14T00:41:58.010Z,97369.63
2022-11-14T00:47:18.592Z,97364.53
2022-11-14T00:52:39.467Z,97377.44
2022-11-14T00:58:00.163Z,97354.28
2022-11-14T01:03:21.071Z,97360.38
2022-11-14T01:08:42.451Z,97350.03
2022-11-14T01:14:06.910Z,97357.78
2022-11-14T01:19:27.872Z,97357.72
2022-11-14T01:24:48.572Z,97332.78
2022-11-14T01:30:10.049Z,97337.22
2022-11-14T01:35:31.965Z,97331.13
2022-11-14T01:40:52.967Z,97313.03
2022-11-14T01:46:20.120Z,97331.16
2022-11-14T01:51:51.680Z,97325.13
2022-11-14T01:57:15.340Z,97333.78
2022-11-14T02:02:36.153Z,97332.06
2022-11-14T02:07:57.446Z,97325.13
2022-11-14T02:13:18.170Z,97324.25
2022-11-14T02:18:39.004Z,97315.63
2022-11-14T02:24:00.054Z,97325.94
2022-11-14T02:29:21.378Z,97303.66
2022-11-14T02:34:42.512Z,97321.69
2022-11-14T02:40:03.213Z,97320.88
2022-11-14T02:45:24.257Z,97325.31
2022-11-14T02:50:45.047Z,97315.03
2022-11-14T02:56:05.905Z,97300.34
2022-11-14T03:01:26.750Z,97316.63
2022-11-14T03:06:47.422Z,97315.78
2022-11-14T03:12:09.076Z,97314.97
2022-11-14T03:17:34.127Z,97320.09
2022-11-14T03:22:54.835Z,97307.22
2022-11-14T03:28:15.607Z,97306.34
2022-11-14T03:33:36.716Z,97330.38
2022-11-14T03:39:00.019Z,97330.44
2022-11-14T03:44:20.568Z,97327.03
2022-11-14T03:49:41.542Z,97302.97
2022-11-14T03:55:02.180Z,97311.50
2022-11-14T04:00:23.260Z,97309.75
2022-11-14T04:05:45.814Z,97300.28
2022-11-14T04:11:06.494Z,97316.75
2022-11-14T04:16:27.422Z,97311.56
2022-11-14T04:21:48.251Z,97307.22
2022-11-14T04:27:08.748Z,97313.25
2022-11-14T04:32:30.614Z,97304.66
2022-11-14T04:37:51.463Z,97297.88
2022-11-14T04:43:12.497Z,97332.25
2022-11-14T04:48:33.497Z,97324.50
2022-11-14T04:53:54.334Z,97327.13
2022-11-14T04:59:20.522Z,97315.09
2022-11-14T05:04:59.549Z,97315.03
2022-11-14T05:10:21.548Z,97333.06
2022-11-14T05:15:42.309Z,97318.50
2022-11-14T05:21:03.287Z,97336.59
2022-11-14T05:26:23.831Z,97319.34
2022-11-14T05:31:44.689Z,97303.81
2022-11-14T05:37:05.317Z,97331.19
2022-11-14T05:42:29.981Z,97331.09
2022-11-14T05:47:54.192Z,97333.63
2022-11-14T05:53:14.795Z,97321.47
2022-11-14T05:58:36.797Z,97329.84
2022-11-14T06:03:57.676Z,97331.50
2022-11-14T06:09:18.790Z,97332.16
2022-11-14T06:14:39.451Z,97308.88
2022-11-14T06:20:00.419Z,97329.38
2022-11-14T06:25:21.036Z,97310.28
2022-11-14T06:30:41.953Z,97322.44
2022-11-14T06:36:05.336Z,97330.81
2022-11-14T06:41:26.337Z,97327.03
2022-11-14T06:46:47.160Z,97318.72
2022-11-14T06:52:07.778Z,97321.94
2022-11-14T06:57:28.693Z,97329.13
2022-11-14T07:02:49.756Z,97317.38
2022-11-14T07:08:10.332Z,97273.41
2022-11-14T07:13:31.727Z,97272.34
2022-11-14T07:18:52.822Z,97273.94
2022-11-14T07:24:13.716Z,97262.53
2022-11-14T07:29:34.288Z,97237.66
2022-11-14T07:35:00.802Z,97239.25
2022-11-14T07:40:22.715Z,97235.72
2022-11-14T07:45:43.606Z,97219.94
2022-11-14T07:51:06.077Z,97235.13
2022-11-14T07:56:26.981Z,97214.03
2022-11-14T08:01:47.600Z,97229.53
2022-11-14T08:07:09.551Z,97222.78
2022-11-14T08:12:30.157Z,97220.72
2022-11-14T08:17:50.949Z,97218.59
2022-11-14T08:23:16.159Z,97231.25
2022-11-14T08:28:37.039Z,97224.69
2022-11-14T08:33:57.749Z,97223.50
2022-11-14T08:39:18.743Z,97181.31
2022-11-14T08:44:39.685Z,97204.03
2022-11-14T08:50:00.433Z,97203.03
2022-11-14T08:55:21.319Z,97184.78
2022-11-14T09:00:42.252Z,97167.53
2022-11-14T09:06:03.695Z,97177.47
2022-11-14T09:11:24.348Z,97152.41
2022-11-14T09:16:47.756Z,97155.59
2022-11-14T09:22:08.503Z,97137.59
2022-11-14T09:27:29.103Z,97128.94
2022-11-14T09:32:50.253Z,97099.47
2022-11-14T09:38:11.964Z,97105.28
2022-11-14T09:44:00.673Z,97099.66
2022-11-14T09:49:27.437Z,97093.09
2022-11-14T09:54:55.500Z,97059.00
2022-11-14T10:00:19.506Z,97056.31
2022-11-14T10:06:28.522Z,97052.53
2022-11-14T10:12:06.046Z,97053.78
2022-11-14T10:17:55.366Z,97049.66
2022-11-14T10:23:19.023Z,97051.66
2022-11-14T10:29:14.774Z,97017.88
2022-11-14T10:34:45.858Z,97039.44
2022-11-14T10:40:15.998Z,97017.22
2022-11-14T10:45:47.797Z,96983.44
2022-11-14T10:51:27.344Z,96988.22
2022-11-14T10:56:55.570Z,96977.38
2022-11-14T11:02:16.573Z,96990.31
2022-11-14T11:08:28.374Z,97013.72
2022-11-14T11:13:56.057Z,97006.38
2022-11-14T11:19:18.985Z,97019.22
2022-11-14T11:24:39.918Z,96966.84
2022-11-14T11:30:39.867Z,96952.47
2022-11-14T11:36:30.246Z,96971.34
2022-11-14T11:53:55.538Z,97011.69
2022-11-14T11:59:38.367Z,97011.44
2022-11-14T12:05:01.236Z,96976.63
2022-11-14T12:10:27.794Z,96948.66
2022-11-14T12:16:17.751Z,96990.03
2022-11-14T12:21:55.590Z,97013.97
2022-11-14T12:27:36.235Z,96998.91
2022-11-14T12:33:29.659Z,97010.94
2022-11-14T12:38:55.151Z,96990.53
2022-11-14T12:44:28.374Z,97009.03
2022-11-14T12:49:52.938Z,97023.03
2022-11-14T12:55:26.064Z,97021.94
2022-11-14T13:00:47.120Z,97032.53
2022-11-14T13:06:25.261Z,97024.41
2022-11-14T13:12:06.897Z,96990.69
2022-11-14T13:17:49.932Z,97012.75
2022-11-14T13:23:26.400Z,97040.84
2022-11-14T13:28:52.607Z,97009.63
2022-11-14T13:34:38.182Z,97041.91
2022-11-14T13:40:07.694Z,97039.84
2022-11-14T13:46:07.658Z,96992.88
2022-11-14T13:51:43.034Z,97030.63
2022-11-14T13:57:23.176Z,97037.50
2022-11-14T14:03:03.428Z,97039.91
2022-11-14T14:08:59.565Z,97037.97
2022-11-14T14:14:47.737Z,97007.63
2022-11-14T14:20:32.333Z,97042.53
2022-11-14T14:26:11.354Z,97036.69
2022-11-14T14:31:40.751Z,97029.78
2022-11-14T14:37:01.507Z,97029.97
2022-11-14T14:42:22.801Z,97024.47
2022-11-14T14:47:47.549Z,97024.47
2022-11-14T14:53:19.001Z,97019.69
2022-11-14T14:58:40.175Z,97044.13
2022-11-14T15:04:09.499Z,97011.47
2022-11-14T15:09:30.309Z,97006.09
2022-11-14T15:14:53.303Z,97045.97
2022-11-14T15:20:30.521Z,97048.47
2022-11-14T15:26:03.234Z,97045.00
2022-11-14T15:31:24.744Z,97041.06
2022-11-14T15:37:10.306Z,97050.44
2022-11-14T15:42:31.704Z,97015.41
2022-11-14T15:48:05.352Z,97047.72
2022-11-14T15:53:30.595Z,97047.16
2022-11-14T15:58:51.825Z,97039.47
2022-11-14T16:04:20.212Z,97060.19
2022-11-14T16:09:41.519Z,97070.63
2022-11-14T16:15:02.184Z,97052.41
2022-11-14T16:20:29.178Z,97062.03
2022-11-14T16:31:38.169Z,97041.31
2022-11-14T16:37:01.204Z,97019.44
2022-11-14T16:42:21.989Z,97054.69
2022-11-14T16:47:46.489Z,97016.56
2022-11-14T16:53:07.667Z,97061.75
2022-11-14T16:58:28.665Z,97058.91
2022-11-14T17:03:49.259Z,97023.00
2022-11-14T17:09:14.985Z,97063.91
2022-11-14T17:14:35.899Z,97038.38
2022-11-14T17:19:56.789Z,97041.41
2022-11-14T17:25:18.364Z,97034.97
2022-11-14T17:30:42.607Z,97062.09
2022-11-14T17:36:08.594Z,96987.72
2022-11-14T17:41:30.419Z,97018.13
2022-11-14T17:46:51.154Z,97008.47
2022-11-14T17:52:12.298Z,97031.19
2022-11-14T17:57:33.415Z,97005.63
2022-11-14T18:02:54.101Z,97008.31
2022-11-14T18:08:15.002Z,97033.59
2022-11-14T18:13:38.260Z,97018.19
2022-11-14T18:18:59.382Z,97008.88
2022-11-14T18:24:21.370Z,96999.22
2022-11-14T18:29:42.285Z,97001.28
2022-11-14T18:35:03.610Z,97016.28
2022-11-14T18:40:24.518Z,96999.69
2022-11-14T18:45:45.265Z,97013.19
2022-11-14T18:51:08.739Z,97029.59
2022-11-14T18:56:29.813Z,97016.31
2022-11-14T19:01:51.048Z,96976.81
2022-11-14T19:07:16.067Z,97002.47
2022-11-14T19:12:37.250Z,97006.81
2022-11-14T19:17:58.600Z,97014.78
2022-11-14T19:23:19.584Z,96996.78
2022-11-14T19:28:40.636Z,96978.28
2022-11-14T19:34:02.056Z,96995.97
2022-11-14T19:39:23.360Z,97005.91
2022-11-14T19:44:44.485Z,96990.75
2022-11-14T19:50:05.561Z,97002.56
2022-11-14T19:55:26.641Z,96981.13
2022-11-14T20:00:47.549Z,96980.72
2022-11-14T20:06:18.206Z,96982.28
2022-11-14T20:11:39.506Z,96998.00
2022-11-14T20:17:00.325Z,96986.44
2022-11-14T20:22:21.399Z,97000.81
2022-11-14T20:27:42.347Z,96992.09
2022-11-14T20:33:03.463Z,97016.47
2022-11-14T20:38:24.388Z,96968.16
2022-11-14T20:43:45.620Z,96972.78
2022-11-14T20:49:09.363Z,97011.50
2022-11-14T20:54:30.266Z,97004.63
2022-11-14T20:59:51.897Z,96986.53
2022-11-14T21:05:12.628Z,97004.34
2022-11-14T21:10:47.343Z,96989.59
2022-11-14T21:16:10.785Z,96972.44
2022-11-14T21:21:35.013Z,96963.88
2022-11-14T21:26:55.982Z,96968.75
2022-11-14T21:32:17.035Z,96982.53
2022-11-14T21:37:38.296Z,96996.22
2022-11-14T21:42:59.158Z,96953.38
2022-11-14T21:48:20.317Z,96971.41
2022-11-14T21:53:42.991Z,96978.78
2022-11-14T21:59:13.217Z,96948.97
2022-11-14T22:04:35.102Z,96938.97
2022-11-14T22:09:56.144Z,96943.84
2022-11-14T22:15:17.022Z,96950.34
2022-11-14T22:20:38.160Z,96946.13
2022-11-14T22:26:01.051Z,96949.06
2022-11-14T22:31:23.748Z,96940.78
2022-11-14T22:36:44.629Z,96914.50
2022-11-14T22:42:05.776Z,96928.66
2022-11-14T22:47:26.519Z,96911.63
2022-11-14T22:52:47.388Z,96884.16
2022-11-14T22:58:08.512Z,96902.91
2022-11-14T23:03:29.514Z,96889.22
2022-11-14T23:08:51.065Z,96883.69
2022-11-14T23:14:14.550Z,96897.00
2022-11-14T23:19:35.254Z,96914.84
2022-11-14T23:24:56.268Z,96857.88
2022-11-14T23:30:17.423Z,96895.09
2022-11-14T23:35:38.531Z,96907.59
2022-11-14T23:41:22.195Z,96877.41
2022-11-14T23:46:43.068Z,96873.72
2022-11-14T23:52:04.148Z,96882.97
2022-11-14T23:57:24.802Z,96839.06
